createdAt,value
2019-05-17T00:01:10.637Z,99.90
2019-05-17T00:03:21.009Z,99.90
2019-05-17T00:05:26.513Z,99.90
2019-05-17T00:07:31.125Z,99.90
2019-05-17T00:09:48.382Z,99.90
2019-05-17T00:12:00.473Z,99.90
2019-05-17T00:14:01.373Z,99.90
2019-05-17T00:16:17.437Z,99.90
2019-05-17T00:18:22.080Z,99.90
2019-05-17T00:20:43.374Z,99.90
2019-05-17T00:22:53.595Z,99.90
2019-05-17T00:25:00.939Z,99.90
2019-05-17T00:27:07.065Z,99.90
2019-05-17T00:29:20.667Z,99.90
2019-05-17T00:31:22.231Z,99.90
2019-05-17T00:33:27.538Z,99.90
2019-05-17T00:35:46.735Z,99.90
2019-05-17T00:37:50.458Z,99.90
2019-05-17T00:40:23.788Z,99.90
2019-05-17T00:42:22.943Z,99.90
2019-05-17T00:44:33.915Z,99.90
2019-05-17T00:46:41.229Z,99.90
2019-05-17T00:48:46.610Z,99.90
2019-05-17T00:50:53.422Z,99.90
2019-05-17T00:53:06.943Z,99.90
2019-05-17T00:55:24.136Z,99.90
2019-05-17T00:57:21.994Z,99.90
2019-05-17T01:01:49.390Z,99.90
2019-05-17T01:04:17.270Z,99.90
2019-05-17T01:06:33.373Z,99.90
2019-05-17T01:08:37.543Z,99.90
2019-05-17T01:10:48.281Z,99.90
2019-05-17T01:13:10.342Z,99.90
2019-05-17T01:15:41.508Z,99.90
2019-05-17T01:17:56.179Z,99.90
2019-05-17T01:19:59.722Z,99.90
2019-05-17T01:24:46.307Z,99.90
2019-05-17T01:26:50.601Z,99.90
2019-05-17T01:29:03.345Z,99.90
2019-05-17T01:31:47.080Z,99.90
2019-05-17T01:38:13.896Z,99.90
2019-05-17T01:45:00.008Z,99.90
2019-05-17T01:46:49.349Z,99.90
2019-05-17T01:48:57.818Z,99.90
2019-05-17T01:51:19.948Z,99.90
2019-05-17T01:55:37.522Z,99.90
2019-05-17T01:57:41.596Z,99.90
2019-05-17T02:00:17.571Z,99.90
2019-05-17T02:02:40.234Z,99.90
2019-05-17T02:05:28.887Z,99.90
2019-05-17T02:07:46.378Z,99.90
2019-05-17T02:10:22.400Z,99.90
2019-05-17T02:12:26.825Z,99.90
2019-05-17T02:14:48.821Z,99.90
2019-05-17T02:16:50.184Z,99.90
2019-05-17T02:18:54.706Z,99.90
2019-05-17T02:21:01.804Z,99.90
2019-05-17T02:23:10.063Z,99.90
2019-05-17T02:25:12.254Z,99.90
2019-05-17T02:27:16.212Z,99.90
2019-05-17T02:29:21.475Z,99.90
2019-05-17T02:31:26.434Z,99.90
2019-05-17T02:33:33.150Z,99.90
2019-05-17T02:35:42.963Z,99.90
2019-05-17T02:37:46.176Z,99.90
2019-05-17T02:40:04.532Z,99.90
2019-05-17T02:42:09.264Z,99.90
2019-05-17T02:44:16.328Z,99.90
2019-05-17T02:46:23.085Z,99.90
2019-05-17T02:48:33.780Z,99.90
2019-05-17T02:50:53.020Z,99.90
2019-05-17T02:53:23.313Z,99.90
2019-05-17T02:55:53.990Z,99.90
2019-05-17T02:58:02.563Z,99.90
2019-05-17T03:00:06.361Z,99.90
2019-05-17T03:02:12.588Z,99.90
2019-05-17T03:04:16.030Z,99.90
2019-05-17T03:06:25.494Z,99.90
2019-05-17T03:08:29.857Z,99.90
2019-05-17T03:10:34.174Z,99.90
2019-05-17T03:12:45.019Z,99.90
2019-05-17T03:14:49.142Z,99.90
2019-05-17T03:16:53.818Z,99.90
2019-05-17T03:18:58.045Z,99.90
2019-05-17T03:21:03.696Z,99.90
2019-05-17T03:23:08.387Z,99.90
2019-05-17T03:25:13.781Z,99.90
2019-05-17T03:27:36.542Z,99.90
2019-05-17T03:29:42.520Z,99.90
2019-05-17T03:31:53.421Z,99.90
2019-05-17T03:33:55.908Z,99.90
2019-05-17T03:35:59.107Z,99.90
2019-05-17T03:38:05.570Z,99.90
2019-05-17T03:40:29.564Z,99.90
2019-05-17T03:42:47.979Z,99.90
2019-05-17T03:45:03.044Z,99.90
2019-05-17T03:48:05.059Z,99.90
2019-05-17T04:03:13.467Z,99.90
2019-05-17T04:05:49.132Z,99.90
2019-05-17T04:08:14.764Z,99.90
2019-05-17T04:10:46.182Z,99.90
2019-05-17T04:13:42.821Z,99.90
2019-05-17T04:15:56.140Z,99.90
2019-05-17T04:34:29.381Z,99.90
2019-05-17T04:36:43.072Z,99.90
2019-05-17T04:39:23.211Z,99.90
2019-05-17T04:41:49.081Z,99.90
2019-05-17T04:46:16.032Z,99.90
2019-05-17T04:48:26.339Z,99.90
2019-05-17T04:50:44.757Z,99.90
2019-05-17T04:52:53.563Z,99.90
2019-05-17T04:55:04.216Z,99.90
2019-05-17T04:57:53.240Z,99.90
2019-05-17T05:00:12.767Z,99.90
2019-05-17T05:02:23.385Z,99.90
2019-05-17T05:04:53.166Z,99.90
2019-05-17T05:06:52.701Z,99.90
2019-05-17T05:09:28.304Z,99.90
2019-05-17T05:12:00.776Z,99.90
2019-05-17T05:14:23.323Z,99.90
2019-05-17T05:16:54.902Z,99.90
2019-05-17T05:27:06.535Z,99.90
2019-05-17T05:29:27.068Z,99.90
2019-05-17T05:32:37.582Z,99.90
2019-05-17T05:35:38.348Z,99.90
2019-05-17T06:30:38.425Z,99.90
2019-05-17T06:37:13.319Z,99.90
2019-05-17T06:48:27.071Z,99.90
2019-05-17T06:51:22.050Z,99.90
2019-05-17T06:53:43.494Z,99.90
2019-05-17T06:56:07.426Z,99.90
2019-05-17T06:58:27.068Z,99.90
2019-05-17T07:00:50.027Z,99.90
2019-05-17T07:03:09.563Z,99.90
2019-05-17T07:05:59.633Z,99.90
2019-05-17T07:08:13.138Z,99.90
2019-05-17T07:13:43.014Z,99.90
2019-05-17T07:16:24.886Z,99.90
2019-05-17T07:18:40.080Z,99.90
2019-05-17T07:21:02.835Z,99.90
2019-05-17T07:23:25.414Z,99.90
2019-05-17T07:26:23.766Z,99.90
2019-05-17T07:31:51.146Z,99.90
2019-05-17T07:40:30.391Z,99.90
2019-05-17T07:43:10.430Z,99.90
2019-05-17T07:45:16.174Z,99.90
2019-05-17T07:47:26.220Z,99.90
2019-05-17T07:49:40.333Z,99.90
2019-05-17T07:53:59.842Z,99.90
2019-05-17T07:56:04.333Z,99.90
2019-05-17T07:58:14.594Z,99.90
2019-05-17T08:01:02.144Z,99.90
2019-05-17T08:06:44.989Z,97.20
2019-05-17T08:09:14.095Z,98.20
2019-05-17T08:11:50.144Z,97.80
2019-05-17T08:14:00.929Z,96.70
2019-05-17T08:16:22.629Z,97.40
2019-05-17T08:19:26.883Z,96.00
2019-05-17T08:22:42.401Z,96.80
2019-05-17T08:25:32.489Z,96.90
2019-05-17T08:28:04.172Z,96.30
2019-05-17T08:30:22.568Z,97.30
2019-05-17T08:32:42.327Z,97.60
2019-05-17T08:34:52.335Z,98.80
2019-05-17T08:37:09.699Z,99.60
2019-05-17T08:39:16.817Z,99.90
2019-05-17T08:41:45.282Z,99.90
2019-05-17T08:43:56.264Z,99.90
2019-05-17T08:46:02.532Z,99.90
2019-05-17T08:48:35.747Z,99.90
2019-05-17T08:51:05.562Z,99.90
2019-05-17T08:57:03.766Z,99.90
2019-05-17T08:59:43.548Z,99.90
2019-05-17T09:02:19.867Z,99.90
2019-05-17T09:04:29.610Z,99.90
2019-05-17T09:06:34.085Z,99.90
2019-05-17T09:08:40.370Z,99.90
2019-05-17T09:10:43.482Z,99.90
2019-05-17T09:12:52.452Z,99.90
2019-05-17T09:15:01.143Z,99.90
2019-05-17T09:17:27.140Z,99.90
2019-05-17T09:19:31.044Z,99.90
2019-05-17T09:21:41.097Z,99.90
2019-05-17T09:23:51.198Z,99.90
2019-05-17T09:25:55.060Z,99.90
2019-05-17T09:28:09.882Z,99.90
2019-05-17T09:30:34.652Z,99.90
2019-05-17T09:32:50.337Z,99.90
2019-05-17T09:38:49.463Z,99.90
2019-05-17T09:44:11.761Z,99.90
2019-05-17T09:46:55.837Z,99.90
2019-05-17T09:49:05.523Z,99.90
2019-05-17T09:51:15.055Z,99.90
2019-05-17T09:56:01.909Z,98.50
2019-05-17T09:58:05.893Z,98.40
2019-05-17T10:00:23.289Z,97.40
2019-05-17T10:03:00.092Z,98.10
2019-05-17T10:05:41.652Z,98.50
2019-05-17T10:08:03.625Z,99.10
2019-05-17T10:10:45.372Z,99.40
2019-05-17T10:13:22.312Z,98.50
2019-05-17T10:19:00.087Z,98.30
2019-05-17T10:21:05.384Z,97.30
2019-05-17T10:23:12.498Z,98.20
2019-05-17T10:25:16.465Z,99.10
2019-05-17T10:27:20.390Z,99.40
2019-05-17T10:29:42.505Z,99.40
2019-05-17T10:31:47.258Z,99.80
2019-05-17T10:34:33.655Z,99.90
2019-05-17T10:40:50.402Z,99.10
2019-05-17T11:33:59.017Z,99.90
2019-05-17T11:36:32.996Z,99.90
2019-05-17T11:39:25.180Z,99.90
2019-05-17T11:45:07.712Z,99.90
2019-05-17T11:48:02.977Z,99.90
2019-05-17T11:50:55.217Z,99.90
2019-05-17T11:53:43.956Z,99.90
2019-05-17T11:56:25.151Z,99.90
2019-05-17T11:59:00.670Z,99.90
2019-05-17T12:01:11.132Z,99.90
2019-05-17T12:06:25.274Z,99.90
2019-05-17T12:08:56.353Z,99.90
2019-05-17T12:11:59.939Z,99.90
2019-05-17T12:14:37.465Z,99.90
2019-05-17T12:16:59.406Z,99.90
2019-05-17T12:19:44.504Z,99.90
2019-05-17T12:22:51.111Z,99.90
2019-05-17T12:29:04.878Z,99.90
2019-05-17T12:36:37.598Z,97.00
2019-05-17T12:38:48.767Z,96.80
2019-05-17T12:41:26.295Z,95.70
2019-05-17T12:43:59.785Z,93.50
2019-05-17T12:49:04.912Z,93.60
2019-05-17T12:51:44.927Z,94.10
2019-05-17T12:55:44.294Z,94.20
2019-05-17T12:56:38.153Z,94.40
2019-05-17T12:58:52.933Z,93.50
2019-05-17T13:01:13.920Z,93.70
2019-05-17T13:06:39.016Z,95.00
2019-05-17T13:13:13.096Z,97.40
2019-05-17T13:15:39.061Z,98.30
2019-05-17T13:17:46.550Z,98.00
2019-05-17T13:20:19.055Z,99.30
2019-05-17T13:23:12.497Z,99.00
2019-05-17T13:25:48.053Z,99.40
2019-05-17T13:28:23.420Z,99.00
2019-05-17T13:31:10.182Z,97.70
2019-05-17T13:33:50.584Z,93.90
2019-05-17T13:39:06.589Z,94.40
2019-05-17T13:41:32.183Z,92.20
2019-05-17T13:46:35.891Z,89.90
2019-05-17T13:48:39.938Z,83.20
2019-05-17T13:50:52.145Z,79.10
2019-05-17T13:53:28.156Z,77.60
2019-05-17T13:56:04.754Z,75.40
2019-05-17T13:58:33.304Z,74.00
2019-05-17T14:01:03.771Z,72.20
2019-05-17T14:06:31.197Z,67.20
2019-05-17T14:09:13.726Z,68.00
2019-05-17T14:11:28.459Z,66.50
2019-05-17T14:14:08.606Z,66.50
2019-05-17T14:27:00.867Z,75.50
2019-05-17T14:29:11.318Z,77.00
2019-05-17T14:31:23.519Z,78.90
2019-05-17T14:36:40.309Z,80.70
2019-05-17T14:45:44.333Z,82.40
2019-05-17T14:48:15.503Z,83.30
2019-05-17T14:50:49.564Z,82.00
2019-05-17T14:52:53.711Z,79.80
2019-05-17T14:55:18.451Z,78.90
2019-05-17T14:57:37.646Z,77.90
2019-05-17T14:59:46.318Z,77.20
2019-05-17T15:02:05.596Z,77.10
2019-05-17T15:04:35.545Z,78.00
2019-05-17T15:06:39.916Z,78.00
2019-05-17T15:08:43.994Z,78.30
2019-05-17T15:10:48.081Z,78.30
2019-05-17T15:12:52.023Z,78.60
2019-05-17T15:14:56.221Z,79.50
2019-05-17T15:17:00.601Z,80.60
2019-05-17T15:19:07.606Z,82.60
2019-05-17T15:21:17.408Z,83.10
2019-05-17T15:23:26.225Z,81.60
2019-05-17T15:25:45.807Z,82.60
2019-05-17T15:27:50.444Z,81.60
2019-05-17T15:29:58.036Z,80.70
2019-05-17T15:32:06.201Z,81.80
2019-05-17T15:34:23.692Z,81.30
2019-05-17T15:36:45.645Z,84.10
2019-05-17T15:38:52.394Z,82.70
2019-05-17T15:40:57.938Z,83.70
2019-05-17T15:43:01.909Z,84.00
2019-05-17T15:45:33.563Z,84.50
2019-05-17T15:47:40.794Z,84.50
2019-05-17T15:49:54.029Z,85.30
2019-05-17T15:52:07.275Z,85.00
2019-05-17T15:54:16.501Z,83.40
2019-05-17T15:56:21.227Z,83.60
2019-05-17T15:58:26.601Z,84.60
2019-05-17T16:00:36.840Z,84.70
2019-05-17T16:02:48.455Z,85.40
2019-05-17T16:05:01.277Z,84.70
2019-05-17T16:07:07.330Z,84.90
2019-05-17T16:09:24.402Z,84.90
2019-05-17T16:11:34.101Z,85.90
2019-05-17T16:13:43.770Z,86.70
2019-05-17T16:15:59.006Z,87.10
2019-05-17T16:18:15.812Z,86.60
2019-05-17T16:20:25.238Z,87.10
2019-05-17T16:22:41.065Z,86.50
2019-05-17T16:25:00.114Z,86.40
2019-05-17T16:27:16.676Z,87.50
2019-05-17T16:29:29.161Z,87.60
2019-05-17T16:31:43.261Z,88.20
2019-05-17T16:33:52.263Z,88.80
2019-05-17T16:35:59.279Z,88.50
2019-05-17T16:38:15.473Z,88.40
2019-05-17T16:40:32.229Z,88.50
2019-05-17T16:42:43.593Z,89.10
2019-05-17T16:44:59.263Z,89.00
2019-05-17T16:47:11.457Z,90.00
2019-05-17T16:49:23.049Z,90.90
2019-05-17T16:51:32.684Z,91.50
2019-05-17T16:53:42.500Z,91.40
2019-05-17T16:55:51.556Z,91.90
2019-05-17T16:57:59.527Z,92.00
2019-05-17T17:00:14.968Z,92.30
2019-05-17T17:02:19.594Z,92.60
2019-05-17T17:04:26.944Z,93.10
2019-05-17T17:06:36.304Z,93.90
2019-05-17T17:08:44.708Z,94.70
2019-05-17T17:10:56.858Z,95.00
2019-05-17T17:13:10.868Z,96.10
2019-05-17T17:15:29.026Z,96.70
2019-05-17T17:19:42.919Z,97.40
2019-05-17T17:21:51.992Z,98.20
2019-05-17T17:26:03.048Z,98.90
2019-05-17T17:28:16.439Z,99.80
2019-05-17T17:30:35.305Z,99.90
2019-05-17T17:32:47.045Z,99.90
2019-05-17T17:35:11.121Z,99.90
2019-05-17T17:37:21.281Z,99.90
2019-05-17T17:39:33.680Z,99.90
2019-05-17T17:41:44.065Z,99.90
2019-05-17T17:43:58.718Z,99.90
2019-05-17T17:46:12.767Z,99.90
2019-05-17T17:48:32.546Z,99.90
2019-05-17T17:50:51.091Z,99.90
2019-05-17T17:53:03.094Z,99.90
2019-05-17T17:55:27.469Z,99.90
2019-05-17T17:57:52.819Z,99.90
2019-05-17T18:00:20.815Z,99.90
2019-05-17T18:02:45.393Z,99.90
2019-05-17T18:04:58.297Z,99.90
2019-05-17T18:07:25.604Z,99.90
2019-05-17T18:09:44.638Z,99.90
2019-05-17T18:14:58.444Z,99.90
2019-05-17T18:17:17.337Z,99.90
2019-05-17T18:19:32.702Z,99.90
2019-05-17T18:21:57.517Z,99.90
2019-05-17T18:24:13.101Z,99.90
2019-05-17T18:26:22.353Z,99.90
2019-05-17T18:28:44.398Z,99.90
2019-05-17T18:31:05.587Z,99.90
2019-05-17T18:33:26.974Z,99.90
2019-05-17T18:35:42.294Z,99.90
2019-05-17T18:37:53.893Z,99.90
2019-05-17T18:40:12.343Z,99.90
2019-05-17T18:42:34.971Z,99.90
2019-05-17T18:45:01.963Z,99.90
2019-05-17T18:47:31.170Z,99.90
2019-05-17T18:50:00.298Z,99.90
2019-05-17T18:52:15.724Z,99.90
2019-05-17T18:54:45.390Z,99.90
2019-05-17T18:56:59.569Z,99.90
2019-05-17T19:01:26.145Z,99.90
2019-05-17T19:03:43.477Z,99.90
2019-05-17T19:06:13.267Z,99.90
2019-05-17T19:08:43.493Z,99.90
2019-05-17T19:11:00.692Z,99.90
2019-05-17T19:13:22.439Z,99.90
2019-05-17T19:15:45.742Z,99.90
2019-05-17T19:18:08.288Z,99.90
2019-05-17T19:20:35.858Z,99.90
2019-05-17T19:23:06.866Z,99.90
2019-05-17T19:25:16.393Z,99.90
2019-05-17T19:27:36.449Z,99.90
2019-05-17T19:29:44.386Z,99.90
2019-05-17T19:31:54.839Z,99.90
2019-05-17T19:34:19.302Z,99.90
2019-05-17T19:36:41.535Z,99.90
2019-05-17T19:38:57.101Z,99.90
2019-05-17T19:41:05.294Z,99.90
2019-05-17T19:43:19.418Z,99.90
2019-05-17T19:45:36.500Z,99.90
2019-05-17T19:47:48.409Z,99.90
2019-05-17T19:50:06.250Z,99.90
2019-05-17T19:52:25.840Z,99.90
2019-05-17T19:54:46.523Z,99.90
2019-05-17T19:59:48.641Z,99.90
2019-05-17T20:02:24.473Z,99.90
2019-05-17T20:04:43.644Z,99.90
2019-05-17T20:07:01.918Z,99.90
2019-05-17T20:09:26.690Z,99.90
2019-05-17T20:12:31.094Z,99.90
2019-05-17T20:14:48.756Z,99.90
2019-05-17T20:17:12.385Z,99.90
2019-05-17T20:19:26.225Z,99.90
2019-05-17T20:21:46.652Z,99.90
2019-05-17T20:24:09.154Z,99.90
2019-05-17T20:26:18.408Z,99.90
2019-05-17T20:28:37.009Z,99.90
2019-05-17T20:31:02.261Z,99.90
2019-05-17T20:33:19.075Z,99.90
2019-05-17T20:35:37.312Z,99.90
2019-05-17T20:38:00.253Z,99.90
2019-05-17T20:40:11.417Z,99.90
2019-05-17T20:42:14.515Z,99.90
2019-05-17T20:44:37.625Z,99.90
2019-05-17T20:46:58.985Z,99.90
2019-05-17T20:49:10.611Z,99.90
2019-05-17T20:51:24.692Z,99.90
2019-05-17T20:53:43.716Z,99.90
2019-05-17T20:55:56.859Z,99.90
2019-05-17T20:58:12.801Z,99.90
2019-05-17T21:00:31.035Z,99.90
2019-05-17T21:02:46.400Z,99.90
2019-05-17T21:04:57.859Z,99.90
2019-05-17T21:07:31.677Z,99.90
2019-05-17T21:09:43.086Z,99.90
2019-05-17T21:12:05.165Z,99.90
2019-05-17T21:14:20.377Z,99.90
2019-05-17T21:16:31.073Z,99.90
2019-05-17T21:18:43.313Z,99.90
2019-05-17T21:21:12.193Z,99.90
2019-05-17T21:23:33.144Z,99.90
2019-05-17T21:25:41.686Z,99.90
2019-05-17T21:27:56.271Z,99.90
2019-05-17T21:30:01.964Z,99.90
2019-05-17T21:32:23.274Z,99.90
2019-05-17T21:34:42.094Z,99.90
2019-05-17T21:36:54.292Z,99.90
2019-05-17T21:39:19.482Z,99.90
2019-05-17T21:44:29.315Z,99.90
2019-05-17T21:47:08.308Z,99.90
2019-05-17T21:49:49.364Z,99.90
2019-05-17T21:52:06.975Z,99.90
2019-05-17T21:54:36.215Z,99.90
2019-05-17T21:56:49.168Z,99.90
2019-05-17T21:59:12.699Z,99.90
2019-05-17T22:01:54.457Z,99.90
2019-05-17T22:04:14.369Z,99.90
2019-05-17T22:09:57.501Z,99.90
2019-05-17T22:12:36.220Z,99.90
2019-05-17T22:15:03.030Z,99.90
2019-05-17T22:17:37.597Z,99.90
2019-05-17T22:19:58.499Z,99.90
2019-05-17T22:22:48.335Z,99.90
2019-05-17T22:25:16.053Z,99.90
2019-05-17T22:27:56.462Z,99.90
2019-05-17T22:30:17.761Z,99.90
2019-05-17T22:38:00.209Z,99.90
2019-05-17T22:42:31.995Z,99.90
2019-05-17T22:45:04.887Z,99.90
2019-05-17T22:47:36.377Z,99.90
2019-05-17T22:49:56.011Z,99.90
